createdAt,value
2023-02-02T00:01:58.662Z,4.58
2023-02-02T00:04:33.702Z,4.61
2023-02-02T00:07:03.008Z,4.61
2023-02-02T00:09:32.439Z,4.71
2023-02-02T00:12:01.602Z,4.74
2023-02-02T00:14:30.466Z,4.65
2023-02-02T00:16:58.379Z,4.68
2023-02-02T00:19:32.316Z,4.68
2023-02-02T00:21:59.531Z,4.71
2023-02-02T00:24:26.810Z,4.74
2023-02-02T00:26:59.857Z,4.71
2023-02-02T00:29:31.133Z,4.72
2023-02-02T00:31:58.260Z,4.79
2023-02-02T00:34:26.001Z,4.73
2023-02-02T00:36:53.716Z,4.80
2023-02-02T00:39:26.183Z,4.69
2023-02-02T00:41:54.230Z,4.80
2023-02-02T00:44:39.879Z,4.71
2023-02-02T00:47:07.029Z,4.68
2023-02-02T00:49:34.095Z,4.75
2023-02-02T00:52:01.073Z,4.74
2023-02-02T00:54:28.530Z,4.66
2023-02-02T00:56:55.511Z,4.73
2023-02-02T00:59:22.423Z,4.70
2023-02-02T01:01:49.614Z,4.73
2023-02-02T01:04:16.592Z,4.58
2023-02-02T01:06:43.550Z,4.62
2023-02-02T01:09:10.716Z,4.65
2023-02-02T01:11:37.660Z,4.66
2023-02-02T01:14:05.990Z,4.65
2023-02-02T01:16:33.099Z,4.72
2023-02-02T01:19:00.102Z,4.66
2023-02-02T01:21:27.123Z,4.67
2023-02-02T01:23:53.988Z,4.58
2023-02-02T01:26:21.105Z,4.50
2023-02-02T01:28:48.195Z,4.66
2023-02-02T01:31:19.141Z,4.57
2023-02-02T01:33:48.493Z,4.64
2023-02-02T01:36:26.070Z,4.64
2023-02-02T01:38:52.965Z,4.73
2023-02-02T01:41:24.776Z,4.71
2023-02-02T01:44:05.024Z,4.69
2023-02-02T01:46:35.948Z,4.77
2023-02-02T01:49:13.267Z,4.62
2023-02-02T01:52:00.480Z,4.66
2023-02-02T01:54:38.138Z,4.77
2023-02-02T01:57:40.855Z,4.73
2023-02-02T02:00:14.006Z,4.80
2023-02-02T02:02:46.585Z,4.65
2023-02-02T02:05:21.498Z,4.77
2023-02-02T02:07:51.946Z,4.73
2023-02-02T02:10:19.301Z,4.70
2023-02-02T02:12:48.396Z,4.69
2023-02-02T02:15:34.260Z,4.69
2023-02-02T02:18:23.757Z,4.71
2023-02-02T02:21:45.702Z,4.75
2023-02-02T02:25:21.746Z,4.77
2023-02-02T02:28:23.113Z,4.79
2023-02-02T02:31:00.281Z,4.79
2023-02-02T02:34:04.951Z,4.78
2023-02-02T02:37:11.924Z,4.83
2023-02-02T02:40:06.885Z,4.83
2023-02-02T02:42:42.604Z,4.78
2023-02-02T02:45:12.576Z,4.86
2023-02-02T02:47:42.113Z,4.83
2023-02-02T02:50:12.690Z,4.71
2023-02-02T02:52:43.067Z,4.83
2023-02-02T02:55:11.660Z,4.87
2023-02-02T02:58:14.045Z,4.89
2023-02-02T03:01:09.363Z,4.74
2023-02-02T03:04:10.731Z,4.63
2023-02-02T03:07:05.294Z,4.77
2023-02-02T03:09:40.591Z,4.59
2023-02-02T03:12:08.110Z,4.65
2023-02-02T03:14:41.353Z,4.62
2023-02-02T03:17:08.686Z,4.58
2023-02-02T03:19:36.280Z,4.58
2023-02-02T03:22:03.650Z,4.60
2023-02-02T03:24:33.760Z,4.60
2023-02-02T03:27:07.169Z,4.59
2023-02-02T03:29:34.447Z,4.53
2023-02-02T03:32:01.582Z,4.56
2023-02-02T03:34:28.884Z,4.57
2023-02-02T03:36:58.842Z,4.53
2023-02-02T03:39:26.080Z,4.50
2023-02-02T03:41:55.883Z,4.50
2023-02-02T03:44:25.531Z,4.49
2023-02-02T03:46:59.031Z,4.54
2023-02-02T03:49:28.784Z,4.65
2023-02-02T03:51:55.926Z,4.67
2023-02-02T03:54:22.962Z,4.71
2023-02-02T03:56:51.404Z,4.68
2023-02-02T03:59:18.620Z,4.69
2023-02-02T04:01:47.961Z,4.80
2023-02-02T04:04:15.752Z,4.81
2023-02-02T04:06:42.767Z,4.81
2023-02-02T04:09:09.856Z,4.78
2023-02-02T04:11:36.783Z,4.82
2023-02-02T04:14:03.868Z,4.87
2023-02-02T04:16:34.756Z,4.91
2023-02-02T04:19:01.774Z,4.94
2023-02-02T04:21:28.677Z,4.96
2023-02-02T04:23:57.113Z,4.95
2023-02-02T04:26:27.132Z,4.95
2023-02-02T04:28:54.373Z,4.94
2023-02-02T04:31:21.424Z,4.92
2023-02-02T04:33:48.389Z,4.93
2023-02-02T04:36:16.612Z,4.97
2023-02-02T04:38:53.631Z,4.89
2023-02-02T04:41:22.183Z,4.95
2023-02-02T04:43:49.793Z,4.94
2023-02-02T04:46:17.086Z,5.01
2023-02-02T04:48:44.099Z,5.03
2023-02-02T04:51:14.373Z,5.09
2023-02-02T04:53:42.641Z,5.05
2023-02-02T04:56:16.251Z,5.01
2023-02-02T04:58:45.579Z,5.10
2023-02-02T05:01:19.820Z,4.97
2023-02-02T05:03:49.100Z,5.13
2023-02-02T05:06:17.798Z,5.07
2023-02-02T05:08:48.948Z,5.07
2023-02-02T05:11:22.259Z,4.96
2023-02-02T05:13:55.423Z,5.01
2023-02-02T05:16:24.200Z,5.07
2023-02-02T05:18:57.019Z,4.89
2023-02-02T05:21:26.018Z,5.06
2023-02-02T05:23:53.261Z,4.95
2023-02-02T05:26:26.421Z,4.89
2023-02-02T05:28:54.059Z,4.91
2023-02-02T05:31:21.525Z,4.85
2023-02-02T05:33:51.409Z,4.92
2023-02-02T05:36:18.702Z,4.89
2023-02-02T05:38:45.703Z,4.79
2023-02-02T05:41:12.826Z,4.86
2023-02-02T05:43:47.730Z,4.87
2023-02-02T05:46:14.873Z,4.87
2023-02-02T05:48:41.969Z,4.88
2023-02-02T05:51:29.875Z,4.95
2023-02-02T05:53:57.143Z,5.02
2023-02-02T05:56:24.217Z,4.82
2023-02-02T05:58:51.251Z,4.79
2023-02-02T06:01:26.868Z,4.91
2023-02-02T06:03:56.893Z,4.75
2023-02-02T06:06:24.033Z,4.73
2023-02-02T06:08:50.953Z,4.74
2023-02-02T06:11:19.405Z,4.78
2023-02-02T06:13:46.714Z,4.79
2023-02-02T06:16:14.003Z,4.77
2023-02-02T06:18:41.286Z,4.74
2023-02-02T06:21:08.479Z,4.79
2023-02-02T06:23:40.714Z,4.73
2023-02-02T06:26:08.239Z,4.78
2023-02-02T06:28:37.680Z,4.97
2023-02-02T06:31:11.599Z,4.96
2023-02-02T06:33:38.879Z,4.66
2023-02-02T06:36:07.607Z,4.58
2023-02-02T06:38:34.573Z,4.47
2023-02-02T06:41:03.212Z,4.57
2023-02-02T06:43:31.440Z,4.58
2023-02-02T06:45:59.002Z,4.56
2023-02-02T06:48:27.258Z,4.57
2023-02-02T06:50:54.408Z,4.67
2023-02-02T06:53:24.950Z,4.62
2023-02-02T06:55:57.531Z,4.59
2023-02-02T06:58:24.610Z,4.61
2023-02-02T07:00:52.008Z,4.68
2023-02-02T07:03:21.403Z,4.58
2023-02-02T07:05:51.462Z,4.66
2023-02-02T07:08:18.382Z,4.67
2023-02-02T07:11:13.127Z,4.60
2023-02-02T07:13:32.450Z,4.68
2023-02-02T07:16:02.755Z,4.59
2023-02-02T07:18:32.442Z,4.63
2023-02-02T07:21:01.112Z,4.57
2023-02-02T07:23:30.492Z,4.60
2023-02-02T07:26:07.073Z,4.59
2023-02-02T07:28:34.939Z,4.61
2023-02-02T07:31:20.910Z,4.61
2023-02-02T07:33:49.025Z,4.61
2023-02-02T07:36:20.360Z,4.65
2023-02-02T07:38:50.373Z,4.69
2023-02-02T07:41:18.359Z,4.63
2023-02-02T07:43:48.658Z,4.69
2023-02-02T07:46:18.047Z,4.65
2023-02-02T07:48:48.968Z,4.72
2023-02-02T07:51:18.451Z,4.59
2023-02-02T07:53:53.407Z,4.64
2023-02-02T07:56:30.408Z,4.58
2023-02-02T07:58:59.159Z,4.57
2023-02-02T08:01:28.401Z,4.57
2023-02-02T08:04:00.483Z,4.52
2023-02-02T08:06:37.928Z,4.59
2023-02-02T08:09:08.662Z,4.56
2023-02-02T08:11:39.668Z,4.53
2023-02-02T08:14:07.330Z,4.51
2023-02-02T08:16:36.922Z,4.46
2023-02-02T08:19:04.029Z,4.40
2023-02-02T08:21:34.893Z,4.48
2023-02-02T08:24:03.203Z,4.67
2023-02-02T08:26:34.322Z,4.90
2023-02-02T08:29:07.700Z,4.97
2023-02-02T08:31:41.678Z,5.03
2023-02-02T08:34:09.237Z,4.98
2023-02-02T08:36:36.936Z,5.07
2023-02-02T08:39:08.686Z,4.98
2023-02-02T08:41:37.570Z,5.03
2023-02-02T08:44:11.627Z,5.11
2023-02-02T08:46:38.886Z,5.09
2023-02-02T08:49:06.277Z,5.21
2023-02-02T08:51:33.225Z,5.13
2023-02-02T08:54:00.213Z,5.20
2023-02-02T08:56:27.355Z,5.26
2023-02-02T08:59:00.450Z,5.31
2023-02-02T09:01:30.704Z,5.23
2023-02-02T09:04:04.762Z,5.29
2023-02-02T09:06:39.857Z,5.23
2023-02-02T09:09:12.783Z,5.25
2023-02-02T09:11:40.713Z,5.45
2023-02-02T09:14:11.864Z,5.35
2023-02-02T09:16:40.068Z,5.46
2023-02-02T09:19:07.422Z,5.38
2023-02-02T09:21:36.835Z,5.65
2023-02-02T09:24:11.723Z,5.69
2023-02-02T09:26:40.343Z,5.69
2023-02-02T09:29:12.361Z,5.52
2023-02-02T09:31:39.959Z,5.69
2023-02-02T09:34:14.180Z,5.71
2023-02-02T09:36:42.841Z,5.80
2023-02-02T09:39:14.966Z,5.71
2023-02-02T09:41:43.397Z,5.80
2023-02-02T09:44:37.465Z,5.66
2023-02-02T09:48:19.947Z,5.84
2023-02-02T09:51:17.381Z,5.90
2023-02-02T09:53:56.239Z,5.92
2023-02-02T09:56:39.287Z,6.05
2023-02-02T09:59:23.467Z,6.07
2023-02-02T10:01:58.358Z,6.36
2023-02-02T10:04:40.308Z,6.51
2023-02-02T10:07:33.353Z,6.55
2023-02-02T10:10:11.313Z,6.15
2023-02-02T10:13:22.996Z,6.32
2023-02-02T10:16:17.063Z,6.21
2023-02-02T10:19:04.519Z,6.64
2023-02-02T10:22:01.415Z,6.44
2023-02-02T10:24:31.144Z,6.60
2023-02-02T10:27:06.919Z,6.04
2023-02-02T10:30:00.978Z,6.09
2023-02-02T10:32:45.507Z,5.98
2023-02-02T10:35:27.321Z,5.72
2023-02-02T10:38:36.577Z,6.04
2023-02-02T10:41:54.890Z,5.79
2023-02-02T10:44:59.028Z,6.09
2023-02-02T10:47:33.327Z,6.54
2023-02-02T10:50:12.544Z,6.80
2023-02-02T10:52:52.278Z,6.37
2023-02-02T10:55:48.137Z,6.43
2023-02-02T10:58:42.478Z,6.40
2023-02-02T11:01:11.644Z,6.11
2023-02-02T11:03:40.196Z,6.14
2023-02-02T11:06:27.132Z,6.26
2023-02-02T11:09:09.221Z,6.23
2023-02-02T11:11:45.359Z,6.24
2023-02-02T11:14:46.141Z,6.42
2023-02-02T11:17:26.537Z,6.42
2023-02-02T11:19:58.289Z,6.23
2023-02-02T11:22:29.013Z,6.20
2023-02-02T11:25:07.511Z,5.98
2023-02-02T11:27:42.506Z,5.92
2023-02-02T11:30:39.216Z,5.73
2023-02-02T11:33:33.845Z,5.67
2023-02-02T11:36:21.128Z,5.44
2023-02-02T11:39:09.615Z,5.33
2023-02-02T11:41:37.521Z,5.30
2023-02-02T11:44:06.519Z,4.88
2023-02-02T11:46:38.619Z,4.90
2023-02-02T11:49:19.009Z,5.16
2023-02-02T11:52:04.783Z,5.05
2023-02-02T11:54:37.104Z,5.27
2023-02-02T11:57:10.328Z,5.28
2023-02-02T11:59:45.839Z,5.11
2023-02-02T12:02:27.681Z,5.15
2023-02-02T12:05:15.592Z,5.15
2023-02-02T12:07:44.450Z,5.34
2023-02-02T12:10:32.999Z,5.38
2023-02-02T12:13:46.072Z,5.23
2023-02-02T12:16:36.910Z,5.25
2023-02-02T12:19:31.459Z,5.17
2023-02-02T12:22:31.398Z,5.25
2023-02-02T12:25:34.219Z,5.30
2023-02-02T12:28:42.206Z,5.57
2023-02-02T12:31:46.641Z,5.61
2023-02-02T12:35:06.081Z,5.53
2023-02-02T12:38:11.719Z,5.45
2023-02-02T12:41:07.775Z,5.74
2023-02-02T12:43:58.825Z,6.14
2023-02-02T12:46:48.660Z,6.19
2023-02-02T12:49:58.735Z,6.13
2023-02-02T12:53:17.011Z,6.58
2023-02-02T12:56:54.939Z,6.48
2023-02-02T13:00:00.368Z,6.69
2023-02-02T13:03:16.063Z,6.71
2023-02-02T13:06:31.371Z,6.70
2023-02-02T13:09:14.170Z,6.80
2023-02-02T13:11:55.931Z,6.74
2023-02-02T13:14:45.548Z,6.81
2023-02-02T13:17:43.902Z,6.89
2023-02-02T13:20:53.259Z,6.34
2023-02-02T13:23:32.695Z,5.98
2023-02-02T13:26:16.449Z,5.86
2023-02-02T13:29:10.460Z,6.29
2023-02-02T13:32:19.631Z,6.25
2023-02-02T13:35:19.359Z,6.17
2023-02-02T13:38:20.340Z,5.66
2023-02-02T13:40:59.297Z,5.50
2023-02-02T13:43:57.312Z,5.42
2023-02-02T13:47:21.787Z,5.49
2023-02-02T13:49:58.116Z,5.71
2023-02-02T13:53:34.460Z,5.75
2023-02-02T13:56:25.990Z,5.96
2023-02-02T13:59:08.518Z,6.18
2023-02-02T14:01:36.365Z,6.10
2023-02-02T14:04:04.805Z,5.89
2023-02-02T14:06:56.845Z,6.03
2023-02-02T14:09:31.509Z,6.02
2023-02-02T14:12:10.930Z,6.08
2023-02-02T14:14:40.007Z,6.01
2023-02-02T14:17:19.756Z,6.06
2023-02-02T14:19:59.760Z,5.92
2023-02-02T14:22:48.647Z,5.90
2023-02-02T14:25:33.878Z,5.93
2023-02-02T14:28:33.630Z,6.05
2023-02-02T14:31:43.415Z,6.05
2023-02-02T14:34:44.405Z,6.11
2023-02-02T14:37:34.835Z,5.95
2023-02-02T14:40:11.068Z,5.69
2023-02-02T14:43:28.531Z,5.69
2023-02-02T14:46:13.594Z,5.50
2023-02-02T14:49:03.963Z,5.32
2023-02-02T14:51:34.722Z,5.01
2023-02-02T14:54:18.128Z,5.13
2023-02-02T14:56:49.973Z,5.07
2023-02-02T14:59:34.620Z,5.01
2023-02-02T15:02:15.979Z,5.10
2023-02-02T15:05:38.733Z,4.96
2023-02-02T15:08:29.132Z,4.99
2023-02-02T15:11:23.119Z,4.78
2023-02-02T15:14:07.022Z,4.99
2023-02-02T15:16:38.598Z,5.05
2023-02-02T15:19:28.038Z,4.89
2023-02-02T15:22:04.212Z,4.90
2023-02-02T15:24:36.152Z,4.60
2023-02-02T15:27:08.696Z,4.63
2023-02-02T15:29:49.131Z,4.56
2023-02-02T15:32:27.206Z,4.41
2023-02-02T15:35:04.833Z,4.34
2023-02-02T15:37:41.719Z,4.29
2023-02-02T15:40:21.255Z,4.16
2023-02-02T15:43:05.577Z,4.23
2023-02-02T15:45:52.784Z,4.00
2023-02-02T15:48:23.723Z,4.10
2023-02-02T15:50:57.277Z,4.00
2023-02-02T15:53:47.421Z,3.95
2023-02-02T15:56:29.882Z,3.86
2023-02-02T15:58:59.908Z,3.79
2023-02-02T16:01:33.409Z,3.72
2023-02-02T16:04:33.785Z,3.62
2023-02-02T16:07:02.550Z,3.56
2023-02-02T16:09:35.697Z,3.50
2023-02-02T16:12:05.916Z,3.31
2023-02-02T16:14:38.464Z,3.25
2023-02-02T16:17:23.331Z,3.30
2023-02-02T16:19:57.029Z,3.24
2023-02-02T16:22:26.157Z,3.10
2023-02-02T16:24:58.181Z,3.14
2023-02-02T16:27:28.957Z,3.05
2023-02-02T16:30:15.631Z,2.95
2023-02-02T16:32:45.647Z,2.90
2023-02-02T16:35:39.174Z,2.82
2023-02-02T16:38:35.924Z,2.75
2023-02-02T16:41:29.331Z,2.73
2023-02-02T16:43:56.385Z,2.62
2023-02-02T16:46:47.874Z,2.52
2023-02-02T16:49:23.047Z,2.42
2023-02-02T16:52:18.142Z,2.47
2023-02-02T16:54:56.591Z,2.34
2023-02-02T16:57:30.500Z,2.34
2023-02-02T17:00:07.029Z,2.31
2023-02-02T17:02:45.690Z,2.23
2023-02-02T17:05:29.367Z,2.28
2023-02-02T17:08:05.602Z,2.25
2023-02-02T17:10:39.505Z,2.30
2023-02-02T17:13:40.844Z,2.25
2023-02-02T17:16:16.084Z,2.20
2023-02-02T17:18:43.518Z,2.20
2023-02-02T17:21:19.704Z,2.15
2023-02-02T17:23:46.892Z,2.11
2023-02-02T17:26:14.090Z,2.11
2023-02-02T17:28:43.049Z,2.14
2023-02-02T17:31:18.192Z,2.12
2023-02-02T17:33:45.269Z,2.11
2023-02-02T17:36:15.315Z,2.05
2023-02-02T17:38:42.241Z,2.02
2023-02-02T17:41:12.449Z,2.02
2023-02-02T17:43:39.667Z,2.00
2023-02-02T17:46:12.307Z,1.95
2023-02-02T17:48:39.622Z,1.97
2023-02-02T17:51:16.830Z,1.94
2023-02-02T17:53:45.288Z,1.93
2023-02-02T17:56:12.368Z,1.94
2023-02-02T17:58:42.202Z,1.89
2023-02-02T18:01:12.137Z,1.83
2023-02-02T18:03:43.017Z,1.75
2023-02-02T18:06:11.827Z,1.74
2023-02-02T18:08:38.771Z,1.69
2023-02-02T18:11:05.902Z,1.69
2023-02-02T18:13:33.112Z,1.66
2023-02-02T18:16:01.409Z,1.57
2023-02-02T18:18:30.803Z,1.56
2023-02-02T18:20:58.894Z,1.47
2023-02-02T18:23:26.358Z,1.34
2023-02-02T18:25:53.393Z,1.16
2023-02-02T18:28:23.842Z,1.01
2023-02-02T18:30:50.957Z,1.08
2023-02-02T18:33:19.654Z,1.07
2023-02-02T18:35:48.480Z,1.08
2023-02-02T18:38:15.881Z,1.15
2023-02-02T18:40:43.949Z,1.12
2023-02-02T18:43:11.047Z,1.12
2023-02-02T18:45:38.054Z,1.03
2023-02-02T18:48:05.601Z,0.98
2023-02-02T18:50:32.540Z,1.04
2023-02-02T18:52:59.448Z,1.03
2023-02-02T18:55:26.757Z,1.07
2023-02-02T18:57:53.979Z,1.04
2023-02-02T19:00:23.555Z,0.95
2023-02-02T19:02:52.599Z,0.29
2023-02-02T19:05:38.550Z,-0.07
2023-02-02T19:08:07.818Z,-0.30
2023-02-02T19:10:37.815Z,-0.14
2023-02-02T19:13:20.296Z,-0.19
2023-02-02T19:15:49.652Z,-0.34
2023-02-02T19:18:23.970Z,-0.56
2023-02-02T19:20:52.555Z,-0.72
2023-02-02T19:23:23.560Z,-0.65
2023-02-02T19:25:56.424Z,-0.33
2023-02-02T19:28:25.260Z,-0.48
2023-02-02T19:31:01.871Z,-0.53
2023-02-02T19:33:52.201Z,-0.65
2023-02-02T19:36:27.793Z,-0.48
2023-02-02T19:39:25.355Z,-0.57
2023-02-02T19:41:56.581Z,-0.60
2023-02-02T19:44:26.091Z,-0.42
2023-02-02T19:46:56.679Z,-0.09
2023-02-02T19:49:35.998Z,-0.09
2023-02-02T19:52:04.424Z,-0.17
2023-02-02T19:54:41.380Z,0.05
2023-02-02T19:57:27.929Z,0.17
2023-02-02T19:59:55.224Z,0.32
2023-02-02T20:02:41.243Z,0.37
2023-02-02T20:05:11.134Z,0.44
2023-02-02T20:07:41.540Z,0.07
2023-02-02T20:10:46.071Z,-0.49
2023-02-02T20:13:23.304Z,-0.52
2023-02-02T20:16:03.284Z,-0.42
2023-02-02T20:18:48.537Z,-0.25
2023-02-02T20:21:46.271Z,0.03
2023-02-02T20:24:45.363Z,0.17
2023-02-02T20:27:23.208Z,0.27
2023-02-02T20:29:53.614Z,0.42
2023-02-02T20:32:40.847Z,0.43
2023-02-02T20:35:42.777Z,0.45
2023-02-02T20:38:34.788Z,0.42
2023-02-02T20:41:02.329Z,0.44
2023-02-02T20:43:29.362Z,0.45
2023-02-02T20:45:56.411Z,0.47
2023-02-02T20:48:25.590Z,0.33
2023-02-02T20:50:52.604Z,0.35
2023-02-02T20:53:19.607Z,0.34
2023-02-02T20:55:46.601Z,0.30
2023-02-02T20:58:13.637Z,0.35
2023-02-02T21:00:40.742Z,0.36
2023-02-02T21:03:07.771Z,0.09
2023-02-02T21:05:34.734Z,-0.06
2023-02-02T21:08:01.749Z,-0.16
2023-02-02T21:10:29.023Z,-0.55
2023-02-02T21:12:56.205Z,-0.63
2023-02-02T21:15:23.530Z,-0.44
2023-02-02T21:17:50.475Z,-0.35
2023-02-02T21:20:18.362Z,-0.39
2023-02-02T21:22:45.676Z,-0.51
2023-02-02T21:25:12.878Z,-0.64
2023-02-02T21:27:44.424Z,-0.64
2023-02-02T21:30:13.967Z,-0.53
2023-02-02T21:32:44.059Z,-0.61
2023-02-02T21:35:11.758Z,-0.73
2023-02-02T21:37:40.579Z,-0.73
2023-02-02T21:40:18.902Z,-0.65
2023-02-02T21:42:49.682Z,-0.28
2023-02-02T21:45:22.676Z,-0.08
2023-02-02T21:47:58.663Z,0.03
2023-02-02T21:50:33.791Z,0.19
2023-02-02T21:53:27.149Z,0.20
2023-02-02T21:56:00.209Z,0.30
2023-02-02T21:58:38.482Z,-0.12
2023-02-02T22:01:41.122Z,-0.26
2023-02-02T22:04:31.125Z,-0.24
2023-02-02T22:07:13.896Z,-0.54
2023-02-02T22:09:44.935Z,-0.54
2023-02-02T22:12:25.418Z,-0.59
2023-02-02T22:14:57.307Z,-0.61
2023-02-02T22:17:37.462Z,-0.57
2023-02-02T22:20:36.780Z,-0.48
2023-02-02T22:23:04.143Z,-0.33
2023-02-02T22:25:35.294Z,-0.07
2023-02-02T22:28:44.627Z,0.10
2023-02-02T22:31:13.961Z,0.14
2023-02-02T22:33:40.966Z,0.21
2023-02-02T22:36:08.722Z,0.30
2023-02-02T22:38:35.666Z,0.45
2023-02-02T22:41:03.140Z,0.65
2023-02-02T22:43:32.320Z,0.74
2023-02-02T22:45:59.368Z,0.59
2023-02-02T22:48:26.326Z,0.85
2023-02-02T22:50:55.419Z,1.05
2023-02-02T22:53:22.509Z,1.15
2023-02-02T22:55:59.184Z,1.20
2023-02-02T22:58:26.313Z,1.30
2023-02-02T23:00:53.237Z,1.35
2023-02-02T23:03:20.420Z,1.42
2023-02-02T23:05:47.419Z,1.49
2023-02-02T23:08:14.643Z,1.48
2023-02-02T23:10:41.627Z,1.49
2023-02-02T23:13:09.003Z,1.56
2023-02-02T23:15:36.341Z,1.37
2023-02-02T23:18:03.984Z,1.21
2023-02-02T23:20:31.029Z,1.37
2023-02-02T23:22:57.945Z,1.33
2023-02-02T23:25:25.119Z,1.29
2023-02-02T23:27:52.135Z,1.32
2023-02-02T23:30:21.985Z,1.30
2023-02-02T23:32:49.146Z,1.44
2023-02-02T23:35:19.999Z,1.53
2023-02-02T23:37:49.634Z,1.60
2023-02-02T23:40:17.106Z,1.61
2023-02-02T23:42:44.020Z,1.61
2023-02-02T23:45:10.969Z,1.62
2023-02-02T23:47:39.792Z,1.50
2023-02-02T23:50:09.379Z,1.53
2023-02-02T23:52:37.294Z,1.63
2023-02-02T23:55:05.368Z,1.67
2023-02-02T23:57:33.768Z,1.59
